Wetterdaten der Wetterstation 31177 Harsum

Letzte Wetterlage 06.07.2015 19:42
Wetterdiagramm
Tabellarische Darstellung
Datum Temperatur Windchill Feuchte Luftdruck Windrichtung Windstärke Niederschlag
06.07.2015 19:42 22,6 °C 22,6 °C 43 % 1017,1 hPa 203 0.7 0 l/m²
06.07.2015 19:22 23,1 °C 23,1 °C 41 % 1018,1 hPa 225 0.9 0 l/m²
06.07.2015 19:02 23,6 °C 23,6 °C 40 % 1017,1 hPa 225 0.9 0 l/m²
06.07.2015 18:41 24,3 °C 24,3 °C 37 % 1017,1 hPa 248 1.0 0 l/m²
06.07.2015 18:21 25,7 °C 25,7 °C 33 % 1018,1 hPa 225 1.1 0 l/m²
06.07.2015 18:00 26,7 °C 26,7 °C 33 % 1018,1 hPa 225 1.1 0 l/m²
06.07.2015 17:39 26,7 °C 26,7 °C 32 % 1019,1 hPa 180 1.1 0 l/m²
06.07.2015 17:18 25,8 °C 25,8 °C 32 % 1019,1 hPa 225 1.0 0 l/m²
06.07.2015 16:58 27,0 °C 27,0 °C 30 % 1019,1 hPa 225 1.4 0 l/m²
06.07.2015 16:37 27,0 °C 27,0 °C 31 % 1019,1 hPa 180 1.7 0 l/m²
06.07.2015 16:15 27,4 °C 27,4 °C 31 % 1019,1 hPa 180 1.3 0 l/m²
06.07.2015 15:54 26,8 °C 26,8 °C 32 % 1019,1 hPa 180 1.5 0 l/m²
06.07.2015 15:33 26,6 °C 26,6 °C 34 % 1018,1 hPa 225 1.2 0 l/m²
06.07.2015 15:12 25,4 °C 25,4 °C 35 % 1019,1 hPa 225 1.4 0 l/m²
06.07.2015 14:51 26,9 °C 26,9 °C 36 % 1019,1 hPa 203 1.0 0 l/m²
06.07.2015 14:30 25,0 °C 25,0 °C 35 % 1019,1 hPa 203 1.4 0 l/m²
06.07.2015 14:10 25,6 °C 25,6 °C 35 % 1019,1 hPa 225 1.2 0 l/m²
06.07.2015 13:49 25,9 °C 25,9 °C 34 % 1019,1 hPa 225 1.3 0 l/m²
06.07.2015 13:28 26,8 °C 26,8 °C 34 % 1019,1 hPa 225 1.6 0 l/m²
06.07.2015 13:08 25,9 °C 25,9 °C 37 % 1019,1 hPa 225 1.5 0 l/m²
06.07.2015 12:47 25,1 °C 25,1 °C 40 % 1019,1 hPa 180 1.5 0 l/m²
06.07.2015 12:26 25,6 °C 25,6 °C 41 % 1019,1 hPa 225 1.6 0 l/m²
06.07.2015 12:05 24,9 °C 24,9 °C 42 % 1018,1 hPa 225 1.5 0 l/m²
06.07.2015 11:44 24,1 °C 24,1 °C 44 % 1019,1 hPa 180 1.3 0 l/m²
06.07.2015 11:23 25,0 °C 25,0 °C 44 % 1019,1 hPa 225 1.5 0 l/m²
Neue Wetterwarnung

Neue Niederschlagsmeldung
Neue Meldung
Regen Liveticker
    sehr starker Regen/Gewitter
    starker Regen/Gewitter
    mäßiger bis starker Regen
    mäßiger Regen
    leichter bis mäßiger Regen
    kein Regen